createdAt,value
2019-02-04T00:00:13.369Z,0.31
2019-02-04T00:01:13.765Z,0.39
2019-02-04T00:02:14.178Z,0.42
2019-02-04T00:03:14.489Z,0.36
2019-02-04T00:04:15.154Z,0.46
2019-02-04T00:05:15.680Z,0.41
2019-02-04T00:06:15.403Z,0.52
2019-02-04T00:07:15.284Z,0.49
2019-02-04T00:08:15.134Z,0.79
2019-02-04T00:09:15.512Z,0.39
2019-02-04T00:10:16.424Z,0.41
2019-02-04T00:11:16.247Z,0.31
2019-02-04T00:12:16.647Z,0.20
2019-02-04T00:13:17.011Z,0.94
2019-02-04T00:14:17.325Z,0.59
2019-02-04T00:15:17.815Z,0.29
2019-02-04T00:16:18.263Z,0.38
2019-02-04T00:17:19.205Z,0.15
2019-02-04T00:18:19.091Z,0.32
2019-02-04T00:19:19.762Z,0.29
2019-02-04T00:20:19.769Z,0.48
2019-02-04T00:21:19.652Z,0.47
2019-02-04T00:22:21.216Z,0.60
2019-02-04T00:23:21.018Z,0.08
2019-02-04T00:24:21.335Z,0.18
2019-02-04T00:25:21.792Z,0.07
2019-02-04T00:26:22.280Z,0.08
2019-02-04T00:27:22.180Z,0.46
2019-02-04T00:28:22.692Z,0.45
2019-02-04T00:29:22.593Z,0.23
2019-02-04T00:30:22.905Z,0.39
2019-02-04T00:31:23.231Z,0.45
2019-02-04T00:32:23.532Z,0.34
2019-02-04T00:33:23.745Z,0.39
2019-02-04T00:34:23.854Z,0.04
2019-02-04T00:35:24.113Z,0.27
2019-02-04T00:36:24.441Z,0.29
2019-02-04T00:37:24.584Z,0.35
2019-02-04T00:38:24.597Z,0.24
2019-02-04T00:39:24.707Z,0.30
2019-02-04T00:40:24.918Z,0.24
2019-02-04T00:41:25.240Z,0.15
2019-02-04T00:42:25.811Z,0.48
2019-02-04T00:43:25.775Z,0.34
2019-02-04T00:44:25.552Z,0.82
2019-02-04T00:45:26.174Z,0.06
2019-02-04T00:46:26.089Z,0.00
2019-02-04T00:47:26.106Z,0.00
2019-02-04T00:48:26.126Z,0.00
2019-02-04T00:49:26.466Z,0.32
2019-02-04T00:50:27.015Z,0.35
2019-02-04T00:51:27.340Z,0.28
2019-02-04T00:52:27.202Z,0.01
2019-02-04T00:53:27.869Z,0.42
2019-02-04T00:54:28.285Z,0.01
2019-02-04T00:55:28.067Z,0.00
2019-02-04T00:56:28.822Z,0.07
2019-02-04T00:57:28.663Z,0.18
2019-02-04T00:58:28.983Z,0.01
2019-02-04T00:59:29.489Z,0.15
2019-02-04T01:00:29.882Z,0.45
2019-02-04T01:01:30.237Z,0.14
2019-02-04T01:02:30.548Z,0.11
2019-02-04T01:03:30.896Z,0.00
2019-02-04T01:04:31.114Z,0.11
2019-02-04T01:05:31.326Z,0.59
2019-02-04T01:06:31.189Z,0.24
2019-02-04T01:07:31.508Z,0.45
2019-02-04T01:08:32.163Z,0.63
2019-02-04T01:09:32.438Z,0.68
2019-02-04T01:10:32.236Z,0.49
2019-02-04T01:11:32.864Z,0.46
2019-02-04T01:12:32.787Z,0.00
2019-02-04T01:13:33.529Z,0.00
2019-02-04T01:14:33.387Z,0.15
2019-02-04T01:15:34.362Z,0.41
2019-02-04T01:16:34.214Z,0.45
2019-02-04T01:18:34.684Z,0.52
2019-02-04T01:19:35.723Z,0.77
2019-02-04T01:20:35.932Z,0.61
2019-02-04T01:21:36.139Z,0.38
2019-02-04T01:22:36.668Z,0.25
2019-02-04T01:23:36.769Z,0.21
2019-02-04T01:24:37.284Z,0.36
2019-02-04T01:25:37.090Z,0.31
2019-02-04T01:26:37.506Z,0.44
2019-02-04T01:27:37.793Z,0.43
2019-02-04T01:28:38.135Z,0.11
2019-02-04T01:29:38.343Z,0.22
2019-02-04T01:30:38.793Z,0.38
2019-02-04T01:31:38.875Z,0.31
2019-02-04T01:32:39.185Z,0.39
2019-02-04T01:33:39.251Z,0.48
2019-02-04T01:34:39.315Z,0.94
2019-02-04T01:35:39.716Z,0.82
2019-02-04T01:36:39.824Z,0.66
2019-02-04T01:37:40.064Z,0.58
2019-02-04T01:38:40.041Z,0.77
2019-02-04T01:39:40.764Z,0.57
2019-02-04T01:40:40.978Z,0.70
2019-02-04T01:41:40.792Z,0.39
2019-02-04T01:42:41.023Z,0.48
2019-02-04T01:43:41.200Z,0.63
2019-02-04T01:44:41.737Z,0.62
2019-02-04T01:45:41.717Z,1.06
2019-02-04T01:46:41.549Z,1.02
2019-02-04T01:47:41.949Z,0.53
2019-02-04T01:48:43.175Z,0.62
2019-02-04T01:49:42.875Z,0.51
2019-02-04T01:50:42.769Z,0.46
2019-02-04T01:51:43.156Z,0.97
2019-02-04T01:52:43.724Z,0.77
2019-02-04T01:53:43.580Z,0.48
2019-02-04T01:54:43.980Z,0.60
2019-02-04T01:55:44.599Z,0.43
2019-02-04T01:56:45.144Z,0.61
2019-02-04T01:57:44.615Z,0.66
2019-02-04T01:58:45.499Z,0.91
2019-02-04T01:59:44.890Z,0.78
2019-02-04T02:00:45.280Z,0.42
2019-02-04T02:01:46.132Z,0.27
2019-02-04T02:02:45.998Z,0.81
2019-02-04T02:03:46.414Z,0.94
2019-02-04T02:04:46.719Z,0.97
2019-02-04T02:05:47.041Z,0.49
2019-02-04T02:06:47.340Z,0.76
2019-02-04T02:07:47.795Z,1.07
2019-02-04T02:08:48.639Z,0.41
2019-02-04T02:09:48.507Z,0.52
2019-02-04T02:10:49.160Z,0.48
2019-02-04T02:11:49.171Z,0.25
2019-02-04T02:12:49.069Z,0.85
2019-02-04T02:13:49.453Z,0.50
2019-02-04T02:14:50.216Z,0.38
2019-02-04T02:15:51.146Z,0.63
2019-02-04T02:16:51.659Z,0.98
2019-02-04T02:17:51.712Z,0.48
2019-02-04T02:18:51.463Z,0.45
2019-02-04T02:19:51.777Z,0.37
2019-02-04T02:20:52.296Z,0.52
2019-02-04T02:21:52.229Z,0.38
2019-02-04T02:22:52.759Z,0.46
2019-02-04T02:23:52.729Z,0.93
2019-02-04T02:24:53.246Z,0.92
2019-02-04T02:25:53.052Z,0.78
2019-02-04T02:26:53.269Z,0.80
2019-02-04T02:27:53.573Z,0.87
2019-02-04T02:28:53.998Z,0.56
2019-02-04T02:29:54.208Z,0.57
2019-02-04T02:30:54.210Z,0.69
2019-02-04T02:31:54.837Z,0.87
2019-02-04T02:32:54.936Z,0.97
2019-02-04T02:33:55.256Z,0.56
2019-02-04T02:34:55.129Z,0.67
2019-02-04T02:35:55.546Z,0.81
2019-02-04T02:36:56.015Z,0.90
2019-02-04T02:37:56.507Z,0.71
2019-02-04T02:38:57.135Z,0.97
2019-02-04T02:39:56.830Z,0.82
2019-02-04T02:40:57.031Z,0.76
2019-02-04T02:41:57.020Z,0.94
2019-02-04T02:42:57.421Z,0.59
2019-02-04T02:43:57.782Z,0.64
2019-02-04T02:44:58.134Z,0.32
2019-02-04T02:45:58.462Z,1.18
2019-02-04T02:46:59.016Z,0.74
2019-02-04T02:47:59.022Z,0.73
2019-02-04T02:48:59.399Z,0.59
2019-02-04T02:49:59.701Z,0.64
2019-02-04T02:51:00.282Z,0.77
2019-02-04T02:52:00.139Z,0.72
2019-02-04T02:53:01.003Z,0.79
2019-02-04T02:54:01.231Z,0.42
2019-02-04T02:55:01.426Z,0.48
2019-02-04T02:56:01.582Z,0.62
2019-02-04T02:57:02.466Z,0.74
2019-02-04T02:58:03.190Z,0.52
2019-02-04T02:59:03.227Z,0.46
2019-02-04T03:00:03.641Z,0.65
2019-02-04T03:01:03.207Z,0.28
2019-02-04T03:02:02.996Z,0.55
2019-02-04T03:03:03.764Z,0.63
2019-02-04T03:04:03.595Z,0.37
2019-02-04T03:05:04.029Z,0.31
2019-02-04T03:06:04.570Z,0.55
2019-02-04T03:07:05.236Z,0.36
2019-02-04T03:08:05.095Z,0.42
2019-02-04T03:09:05.672Z,0.27
2019-02-04T03:10:05.826Z,0.01
2019-02-04T03:11:06.252Z,0.38
2019-02-04T03:12:06.773Z,0.42
2019-02-04T03:13:06.766Z,0.31
2019-02-04T03:14:06.771Z,0.00
2019-02-04T03:15:06.782Z,0.25
2019-02-04T03:16:07.209Z,0.31
2019-02-04T03:17:07.246Z,0.08
2019-02-04T03:18:07.718Z,0.21
2019-02-04T03:19:07.609Z,0.14
2019-02-04T03:20:08.046Z,0.03
2019-02-04T03:21:08.554Z,0.20
2019-02-04T03:22:08.593Z,0.77
2019-02-04T03:23:08.880Z,0.21
2019-02-04T03:24:09.164Z,0.77
2019-02-04T03:25:09.508Z,0.45
2019-02-04T03:26:09.524Z,0.01
2019-02-04T03:27:09.959Z,0.18
2019-02-04T03:28:10.039Z,0.24
2019-02-04T03:29:09.461Z,0.00
2019-02-04T03:30:10.475Z,0.35
2019-02-04T03:31:10.480Z,0.44
2019-02-04T03:32:10.696Z,0.74
2019-02-04T03:33:10.912Z,0.91
2019-02-04T03:34:11.037Z,0.48
2019-02-04T03:35:11.315Z,1.25
2019-02-04T03:36:11.277Z,0.83
2019-02-04T03:37:11.940Z,0.57
2019-02-04T03:38:11.834Z,0.45
2019-02-04T03:39:12.217Z,1.33
2019-02-04T03:40:12.589Z,0.63
2019-02-04T03:41:13.697Z,0.68
2019-02-04T03:42:13.160Z,0.70
2019-02-04T03:43:13.580Z,0.24
2019-02-04T03:44:13.991Z,0.38
2019-02-04T03:45:15.388Z,0.14
2019-02-04T03:47:15.362Z,0.14
2019-02-04T03:48:15.398Z,0.72
2019-02-04T03:49:15.253Z,0.11
2019-02-04T03:50:16.635Z,0.10
2019-02-04T03:51:15.978Z,0.03
2019-02-04T03:52:16.654Z,0.20
2019-02-04T03:53:16.609Z,0.18
2019-02-04T03:54:17.166Z,0.10
2019-02-04T03:55:17.036Z,0.00
2019-02-04T03:56:17.425Z,0.08
2019-02-04T03:57:17.944Z,0.90
2019-02-04T03:58:18.437Z,0.35
2019-02-04T03:59:18.287Z,0.14
2019-02-04T04:00:18.602Z,0.18
2019-02-04T04:01:18.856Z,0.56
2019-02-04T04:02:19.230Z,0.36
2019-02-04T04:03:19.598Z,0.79
2019-02-04T04:04:21.023Z,0.76
2019-02-04T04:05:21.543Z,0.59
2019-02-04T04:06:21.458Z,0.17
2019-02-04T04:07:21.979Z,0.38
2019-02-04T04:08:21.981Z,0.17
2019-02-04T04:09:21.888Z,0.00
2019-02-04T04:10:22.213Z,0.00
2019-02-04T04:11:22.473Z,0.00
2019-02-04T04:12:22.788Z,0.15
2019-02-04T04:13:22.928Z,0.10
2019-02-04T04:14:23.140Z,0.27
2019-02-04T04:15:23.559Z,0.21
2019-02-04T04:16:23.768Z,0.00
2019-02-04T04:17:23.978Z,0.00
2019-02-04T04:18:24.224Z,0.00
2019-02-04T04:19:24.300Z,0.00
2019-02-04T04:20:24.616Z,0.00
2019-02-04T04:21:24.743Z,0.00
2019-02-04T04:22:24.603Z,0.17
2019-02-04T04:23:25.308Z,0.11
2019-02-04T04:24:25.254Z,0.21
2019-02-04T04:25:25.663Z,0.34
2019-02-04T04:26:25.854Z,0.14
2019-02-04T04:27:26.513Z,0.27
2019-02-04T04:28:26.288Z,0.83
2019-02-04T04:29:26.587Z,0.62
2019-02-04T04:30:27.457Z,0.63
2019-02-04T04:31:26.948Z,0.90
2019-02-04T04:32:29.926Z,0.46
2019-02-04T04:33:27.974Z,0.53
2019-02-04T04:34:28.184Z,0.52
2019-02-04T04:35:28.807Z,0.21
2019-02-04T04:36:28.154Z,0.13
2019-02-04T04:37:28.473Z,0.01
2019-02-04T04:38:29.368Z,0.00
2019-02-04T04:39:29.189Z,0.00
2019-02-04T04:40:29.517Z,0.00
2019-02-04T04:41:30.483Z,0.00
2019-02-04T04:42:30.346Z,0.00
2019-02-04T04:43:30.907Z,0.00
2019-02-04T04:44:30.713Z,0.00
2019-02-04T04:45:31.214Z,0.00
2019-02-04T04:46:31.595Z,0.00
2019-02-04T04:47:32.475Z,0.00
2019-02-04T04:48:32.658Z,0.00
2019-02-04T04:49:32.550Z,0.00
2019-02-04T04:50:33.202Z,0.00
2019-02-04T04:51:33.930Z,0.00
2019-02-04T04:52:33.436Z,0.00
2019-02-04T04:53:33.718Z,0.00
2019-02-04T04:54:34.561Z,0.00
2019-02-04T04:55:34.424Z,0.00
2019-02-04T04:56:35.414Z,0.00
2019-02-04T04:57:36.125Z,0.00
2019-02-04T04:58:36.545Z,0.00
2019-02-04T04:59:37.399Z,0.00
2019-02-04T05:00:37.263Z,0.00
2019-02-04T05:02:37.684Z,0.00
2019-02-04T05:03:37.851Z,0.00
2019-02-04T05:04:37.800Z,0.00
2019-02-04T05:05:38.422Z,0.00
2019-02-04T05:06:38.632Z,0.00
2019-02-04T05:07:38.742Z,0.00
2019-02-04T05:08:39.070Z,0.17
2019-02-04T05:09:39.263Z,0.56
2019-02-04T05:10:39.484Z,0.24
2019-02-04T05:11:39.480Z,0.51
2019-02-04T05:12:39.699Z,0.35
2019-02-04T05:13:39.815Z,0.00
2019-02-04T05:14:39.903Z,0.00
2019-02-04T05:15:39.826Z,0.00
2019-02-04T05:16:39.693Z,0.00
2019-02-04T05:17:40.714Z,0.00
2019-02-04T05:18:40.834Z,0.00
2019-02-04T05:20:40.655Z,0.00
2019-02-04T05:21:40.886Z,0.11
2019-02-04T05:22:40.841Z,0.00
2019-02-04T05:23:41.163Z,0.00
2019-02-04T05:24:41.618Z,0.00
2019-02-04T05:25:42.445Z,0.00
2019-02-04T05:26:42.321Z,0.08
2019-02-04T05:27:42.631Z,0.06
2019-02-04T05:28:43.058Z,0.00
2019-02-04T05:29:43.346Z,0.00
2019-02-04T05:30:43.681Z,0.00
2019-02-04T05:31:44.544Z,0.00
2019-02-04T05:32:44.390Z,0.00
2019-02-04T05:33:44.823Z,0.00
2019-02-04T05:34:45.882Z,0.00
2019-02-04T05:36:45.242Z,0.30
2019-02-04T05:37:45.568Z,0.13
2019-02-04T05:38:46.136Z,0.37
2019-02-04T05:39:46.601Z,0.24
2019-02-04T05:40:46.503Z,0.08
2019-02-04T05:41:47.908Z,0.00
2019-02-04T05:42:47.268Z,0.00
2019-02-04T05:43:47.478Z,0.08
2019-02-04T05:44:47.368Z,0.24
2019-02-04T05:45:48.204Z,0.18
2019-02-04T05:46:48.122Z,0.11
2019-02-04T05:47:48.487Z,0.17
2019-02-04T05:48:49.744Z,0.01
2019-02-04T05:49:49.014Z,0.00
2019-02-04T05:50:49.437Z,0.00
2019-02-04T05:51:50.191Z,0.04
2019-02-04T05:52:50.812Z,0.04
2019-02-04T05:53:51.125Z,0.00
2019-02-04T05:54:51.146Z,0.00
2019-02-04T05:55:52.162Z,0.00
2019-02-04T05:56:52.171Z,0.27
2019-02-04T05:57:52.584Z,0.20
2019-02-04T05:58:53.107Z,0.01
2019-02-04T05:59:52.861Z,0.34
2019-02-04T06:00:53.115Z,0.14
2019-02-04T06:01:53.530Z,0.00
2019-02-04T06:02:53.641Z,0.08
2019-02-04T06:03:53.954Z,0.39
2019-02-04T06:04:54.451Z,0.21
2019-02-04T06:05:54.277Z,0.40
2019-02-04T06:06:54.692Z,0.15
2019-02-04T06:07:54.591Z,0.38
2019-02-04T06:08:55.178Z,0.62
2019-02-04T06:09:55.132Z,0.54
2019-02-04T06:10:55.641Z,0.73
2019-02-04T06:11:55.609Z,0.80
2019-02-04T06:12:55.761Z,0.64
2019-02-04T06:13:55.776Z,0.58
2019-02-04T06:14:55.976Z,0.44
2019-02-04T06:15:56.053Z,0.23
2019-02-04T06:16:56.075Z,0.27
2019-02-04T06:17:56.152Z,0.21
2019-02-04T06:19:00.896Z,0.03
2019-02-04T06:19:56.495Z,0.25
2019-02-04T06:20:56.895Z,0.53
2019-02-04T06:21:57.221Z,0.35
2019-02-04T06:22:57.971Z,0.52
2019-02-04T06:23:58.097Z,0.15
2019-02-04T06:24:57.989Z,0.00
2019-02-04T06:25:58.396Z,0.06
2019-02-04T06:26:59.021Z,0.00
2019-02-04T06:27:58.374Z,0.00
2019-02-04T06:28:58.793Z,0.00
2019-02-04T06:29:59.589Z,0.00
2019-02-04T06:30:59.871Z,0.00
2019-02-04T06:31:59.727Z,0.00
2019-02-04T06:33:00.223Z,0.41
2019-02-04T06:34:00.334Z,0.28
2019-02-04T06:35:00.195Z,0.00
2019-02-04T06:36:00.457Z,0.00
2019-02-04T06:37:00.802Z,0.00
2019-02-04T06:38:01.861Z,0.00
2019-02-04T06:39:01.970Z,0.00
2019-02-04T06:40:02.194Z,0.00
2019-02-04T06:41:01.684Z,0.14
2019-02-04T06:42:02.196Z,0.03
2019-02-04T06:43:02.692Z,0.00
2019-02-04T06:44:03.389Z,0.00
2019-02-04T06:45:03.448Z,0.00
2019-02-04T06:46:03.580Z,0.00
2019-02-04T06:47:02.941Z,0.00
2019-02-04T06:48:03.357Z,0.00
2019-02-04T06:49:11.911Z,0.00
2019-02-04T06:50:04.828Z,0.00
2019-02-04T06:51:05.123Z,0.00
2019-02-04T06:52:05.025Z,0.00
2019-02-04T06:53:06.053Z,0.00
2019-02-04T06:54:05.860Z,0.00
2019-02-04T06:55:05.973Z,0.00
2019-02-04T06:56:06.688Z,0.00
2019-02-04T06:57:07.204Z,0.00
2019-02-04T06:58:07.114Z,0.00
2019-02-04T06:59:07.631Z,0.00
2019-02-04T07:00:07.647Z,0.00
2019-02-04T07:01:07.950Z,0.00
2019-02-04T07:02:07.972Z,0.11
2019-02-04T07:03:07.857Z,0.04
2019-02-04T07:04:08.068Z,0.00
2019-02-04T07:05:08.396Z,0.00
2019-02-04T07:06:08.903Z,0.00
2019-02-04T07:07:09.218Z,0.00
2019-02-04T07:08:09.712Z,0.00
2019-02-04T07:09:09.556Z,0.00
2019-02-04T07:10:09.783Z,0.00
2019-02-04T07:11:09.958Z,0.00
2019-02-04T07:12:10.102Z,0.00
2019-02-04T07:13:09.972Z,0.00
2019-02-04T07:14:10.547Z,0.00
2019-02-04T07:15:10.838Z,0.00
2019-02-04T07:16:10.957Z,0.00
2019-02-04T07:17:11.182Z,0.00
2019-02-04T07:18:11.135Z,0.00
2019-02-04T07:19:11.415Z,0.00
2019-02-04T07:20:12.057Z,0.00
2019-02-04T07:21:11.567Z,0.00
2019-02-04T07:22:12.184Z,0.00
2019-02-04T07:23:12.010Z,0.00
2019-02-04T07:24:12.619Z,0.00
2019-02-04T07:25:12.617Z,0.00
2019-02-04T07:26:12.623Z,0.00
2019-02-04T07:27:13.546Z,0.32
2019-02-04T07:28:13.365Z,0.10
2019-02-04T07:29:13.708Z,0.01
2019-02-04T07:30:14.166Z,0.00
2019-02-04T07:31:14.710Z,0.21
2019-02-04T07:32:14.710Z,0.49
2019-02-04T07:33:14.642Z,0.03
2019-02-04T07:34:15.138Z,0.27
2019-02-04T07:35:15.850Z,0.21
2019-02-04T07:36:15.661Z,0.03
2019-02-04T07:37:15.524Z,0.60
2019-02-04T07:38:16.240Z,0.22
2019-02-04T07:39:16.071Z,0.63
2019-02-04T07:40:16.988Z,0.17
2019-02-04T07:41:17.356Z,0.00
2019-02-04T07:42:17.196Z,0.06
2019-02-04T07:43:18.665Z,0.62
2019-02-04T07:44:18.269Z,0.21
2019-02-04T07:45:18.243Z,0.27
2019-02-04T07:46:18.283Z,0.01
2019-02-04T07:47:18.153Z,0.11
2019-02-04T07:48:18.557Z,0.25
2019-02-04T07:49:18.993Z,0.74
2019-02-04T07:50:19.390Z,0.55
2019-02-04T07:51:20.669Z,0.34
2019-02-04T07:52:20.876Z,0.00
2019-02-04T07:53:21.399Z,0.14
2019-02-04T07:54:21.095Z,0.00
2019-02-04T07:55:21.615Z,0.00
2019-02-04T07:56:21.526Z,0.06
2019-02-04T07:57:21.937Z,0.18
2019-02-04T07:58:22.348Z,0.24
2019-02-04T07:59:22.868Z,0.00
2019-02-04T08:00:22.548Z,0.47
2019-02-04T08:01:22.892Z,0.91
2019-02-04T08:02:23.095Z,0.65
2019-02-04T08:03:23.507Z,1.06
2019-02-04T08:04:23.826Z,0.91
2019-02-04T08:05:24.131Z,1.25
2019-02-04T08:06:24.376Z,0.95
2019-02-04T08:07:24.248Z,0.42
2019-02-04T08:08:24.971Z,0.60
2019-02-04T08:09:24.901Z,0.65
2019-02-04T08:10:25.521Z,0.74
2019-02-04T08:11:25.396Z,0.93
2019-02-04T08:12:25.801Z,1.12
2019-02-04T08:13:26.133Z,0.81
2019-02-04T08:14:26.298Z,0.91
2019-02-04T08:15:26.816Z,0.51
2019-02-04T08:16:26.771Z,0.08
2019-02-04T08:17:26.570Z,0.00
2019-02-04T08:18:27.000Z,0.00
2019-02-04T08:19:27.333Z,0.00
2019-02-04T08:20:27.693Z,0.00
2019-02-04T08:21:28.604Z,0.41
2019-02-04T08:22:28.407Z,0.14
2019-02-04T08:23:28.775Z,0.69
2019-02-04T08:24:29.796Z,1.02
2019-02-04T08:25:29.702Z,0.89
2019-02-04T08:26:29.551Z,0.80
2019-02-04T08:27:30.022Z,0.53
2019-02-04T08:28:30.569Z,0.42
2019-02-04T08:29:30.743Z,0.44
2019-02-04T08:30:30.648Z,0.44
2019-02-04T08:31:31.781Z,0.59
2019-02-04T08:32:31.595Z,0.68
2019-02-04T08:33:31.446Z,0.42
2019-02-04T08:34:32.616Z,0.63
2019-02-04T08:35:32.207Z,0.75
2019-02-04T08:36:43.081Z,0.90
2019-02-04T08:37:32.532Z,0.98
2019-02-04T08:38:33.026Z,1.07
2019-02-04T08:39:33.426Z,1.04
2019-02-04T08:40:34.091Z,1.12
2019-02-04T08:41:34.506Z,1.55
2019-02-04T08:42:35.445Z,1.47
2019-02-04T08:43:35.133Z,1.22
2019-02-04T08:44:36.063Z,0.96
2019-02-04T08:45:36.481Z,0.95
2019-02-04T08:46:36.791Z,1.33
2019-02-04T08:47:37.419Z,0.81
2019-02-04T08:48:37.316Z,2.30
2019-02-04T08:49:37.839Z,0.97
2019-02-04T08:50:37.779Z,0.37
2019-02-04T08:51:37.758Z,0.58
2019-02-04T08:52:38.068Z,1.39
2019-02-04T08:53:38.585Z,1.76
2019-02-04T08:54:38.275Z,1.34
2019-02-04T08:55:38.189Z,1.10
2019-02-04T08:56:39.014Z,1.25
2019-02-04T08:57:39.366Z,1.08
2019-02-04T08:58:39.449Z,1.54
2019-02-04T08:59:40.245Z,1.48
2019-02-04T09:00:39.854Z,1.21
2019-02-04T09:01:39.942Z,1.41
2019-02-04T09:02:40.187Z,1.25
2019-02-04T09:03:40.379Z,0.93
2019-02-04T09:04:40.560Z,0.52
2019-02-04T09:05:40.645Z,0.62
2019-02-04T09:06:40.638Z,0.99
2019-02-04T09:07:40.543Z,2.03
2019-02-04T09:08:40.660Z,2.31
2019-02-04T09:09:40.890Z,2.76
2019-02-04T09:10:41.047Z,1.71
2019-02-04T09:11:41.672Z,1.55
2019-02-04T09:12:41.573Z,2.48
2019-02-04T09:13:41.366Z,2.05
2019-02-04T09:14:41.640Z,2.32
2019-02-04T09:15:41.929Z,1.80
2019-02-04T09:16:42.268Z,1.43
2019-02-04T09:17:42.691Z,0.90
2019-02-04T09:18:44.751Z,0.58
2019-02-04T09:19:43.317Z,0.13
2019-02-04T09:20:43.974Z,0.55
2019-02-04T09:21:43.837Z,0.73
2019-02-04T09:22:44.135Z,1.44
2019-02-04T09:23:44.823Z,0.70
2019-02-04T09:24:45.130Z,0.56
2019-02-04T09:25:44.979Z,0.56
2019-02-04T09:26:45.656Z,0.56
2019-02-04T09:27:45.582Z,0.84
2019-02-04T09:28:46.262Z,0.66
2019-02-04T09:29:46.282Z,0.38
2019-02-04T09:30:46.553Z,0.96
2019-02-04T09:31:46.610Z,0.24
2019-02-04T09:32:46.466Z,0.59
2019-02-04T09:33:46.885Z,0.51
2019-02-04T09:34:47.507Z,0.28
2019-02-04T09:35:50.629Z,0.38
2019-02-04T09:36:47.518Z,0.54
2019-02-04T09:37:47.894Z,0.86
2019-02-04T09:38:48.214Z,2.10
2019-02-04T09:39:49.030Z,1.40
2019-02-04T09:40:48.877Z,1.56
2019-02-04T09:41:49.179Z,1.74
2019-02-04T09:42:49.632Z,0.83
2019-02-04T09:43:50.789Z,2.59
2019-02-04T09:44:51.298Z,1.99
2019-02-04T09:45:51.106Z,1.00
2019-02-04T09:46:51.626Z,0.76
2019-02-04T09:47:52.142Z,0.31
2019-02-04T09:48:52.050Z,1.83
2019-02-04T09:49:52.562Z,0.76
2019-02-04T09:50:52.569Z,0.92
2019-02-04T09:51:52.890Z,1.22
2019-02-04T09:52:53.303Z,1.27
2019-02-04T09:53:53.726Z,1.36
2019-02-04T09:54:54.091Z,1.82
2019-02-04T09:55:57.018Z,1.15
2019-02-04T09:56:54.654Z,1.47
2019-02-04T09:57:54.637Z,1.47
2019-02-04T09:58:55.295Z,1.04
2019-02-04T09:59:55.408Z,1.61
2019-02-04T10:00:55.296Z,1.48
2019-02-04T10:01:55.730Z,1.51
2019-02-04T10:02:55.775Z,1.00
2019-02-04T10:03:55.820Z,0.72
2019-02-04T10:04:55.964Z,0.47
2019-02-04T10:05:56.232Z,1.13
2019-02-04T10:06:56.248Z,0.65
2019-02-04T10:07:56.149Z,0.86
2019-02-04T10:08:56.590Z,0.77
2019-02-04T10:09:58.989Z,0.62
2019-02-04T10:10:57.123Z,1.23
2019-02-04T10:11:57.636Z,0.62
2019-02-04T10:12:58.154Z,0.89
2019-02-04T10:13:57.561Z,1.06
2019-02-04T10:14:57.826Z,1.18
2019-02-04T10:15:59.199Z,0.91
2019-02-04T10:16:59.228Z,1.21
2019-02-04T10:17:58.692Z,1.38
2019-02-04T10:18:59.414Z,0.78
2019-02-04T10:19:59.269Z,1.07
2019-02-04T10:20:59.622Z,0.95
2019-02-04T10:22:00.263Z,1.04
2019-02-04T10:23:00.464Z,1.03
2019-02-04T10:24:00.373Z,1.11
2019-02-04T10:25:01.362Z,0.77
2019-02-04T10:26:01.959Z,1.04
2019-02-04T10:27:01.794Z,0.97
2019-02-04T10:28:01.581Z,1.07
2019-02-04T10:29:02.271Z,0.66
2019-02-04T10:30:03.183Z,0.88
2019-02-04T10:31:02.967Z,0.79
2019-02-04T10:32:02.875Z,1.01
2019-02-04T10:33:03.270Z,1.82
2019-02-04T10:34:04.310Z,1.46
2019-02-04T10:35:03.807Z,1.23
2019-02-04T10:36:05.019Z,1.08
2019-02-04T10:37:04.432Z,0.76
2019-02-04T10:38:05.414Z,0.77
2019-02-04T10:39:05.921Z,1.01
2019-02-04T10:40:06.346Z,0.86
2019-02-04T10:41:06.541Z,0.58
2019-02-04T10:42:07.044Z,0.24
2019-02-04T10:43:06.956Z,0.31
2019-02-04T10:44:07.459Z,0.66
2019-02-04T10:45:07.797Z,0.34
2019-02-04T10:46:08.028Z,1.10
2019-02-04T10:47:08.440Z,0.86
2019-02-04T10:48:09.060Z,1.71
2019-02-04T10:49:08.718Z,2.54
2019-02-04T10:50:08.831Z,1.82
2019-02-04T10:51:09.343Z,0.91
2019-02-04T10:52:09.659Z,2.32
2019-02-04T10:53:09.871Z,1.26
2019-02-04T10:54:10.449Z,0.72
2019-02-04T10:55:10.921Z,1.57
2019-02-04T10:56:11.059Z,1.37
2019-02-04T10:57:11.113Z,1.90
2019-02-04T10:58:10.817Z,0.99
2019-02-04T10:59:11.513Z,1.36
2019-02-04T11:00:11.989Z,0.86
2019-02-04T11:01:11.447Z,1.06
2019-02-04T11:03:11.981Z,0.82
2019-02-04T11:04:12.704Z,1.51
2019-02-04T11:05:13.058Z,0.83
2019-02-04T11:06:12.931Z,2.56
2019-02-04T11:07:13.368Z,1.74
2019-02-04T11:08:14.224Z,1.60
2019-02-04T11:09:14.228Z,1.50
2019-02-04T11:10:14.583Z,1.87
2019-02-04T11:11:14.458Z,2.08
2019-02-04T11:12:15.026Z,1.33
2019-02-04T11:14:59.295Z,1.65
2019-02-04T11:15:46.320Z,0.77
2019-02-04T11:16:30.355Z,0.88
2019-02-04T11:17:30.682Z,1.11
2019-02-04T11:18:31.572Z,1.11
2019-02-04T11:19:32.086Z,1.36
2019-02-04T11:20:31.802Z,0.72
2019-02-04T11:21:31.665Z,1.01
2019-02-04T11:22:32.029Z,1.03
2019-02-04T11:23:32.389Z,1.50
2019-02-04T11:24:32.676Z,0.98
2019-02-04T11:25:33.235Z,1.24
2019-02-04T11:26:33.235Z,2.10
2019-02-04T11:27:33.237Z,1.31
2019-02-04T11:28:33.683Z,1.53
2019-02-04T11:29:34.887Z,1.22
2019-02-04T11:30:34.601Z,0.56
2019-02-04T11:31:34.467Z,1.85
2019-02-04T11:32:35.031Z,2.28
2019-02-04T11:33:35.259Z,1.55
2019-02-04T11:34:35.841Z,0.98
2019-02-04T11:35:36.316Z,1.61
2019-02-04T11:36:36.674Z,1.11
2019-02-04T11:37:36.925Z,1.64
2019-02-04T11:38:37.307Z,1.34
2019-02-04T11:39:37.633Z,1.25
2019-02-04T11:40:40.953Z,0.94
2019-02-04T11:41:38.090Z,1.73
2019-02-04T11:42:38.286Z,1.29
2019-02-04T11:43:38.665Z,1.87
2019-02-04T11:44:39.028Z,1.43
2019-02-04T11:45:39.309Z,1.24
2019-02-04T11:46:39.755Z,1.08
2019-02-04T11:47:39.921Z,1.58
2019-02-04T11:48:40.338Z,2.14
2019-02-04T11:49:40.503Z,2.02
2019-02-04T11:50:40.655Z,1.38
2019-02-04T11:51:40.683Z,1.22
2019-02-04T11:52:40.771Z,0.80
2019-02-04T11:53:40.758Z,1.96
2019-02-04T11:54:41.667Z,1.64
2019-02-04T11:55:41.888Z,2.14
2019-02-04T11:56:41.830Z,4.30
2019-02-04T11:57:41.931Z,1.84
2019-02-04T11:58:42.142Z,1.32
2019-02-04T11:59:42.878Z,0.63
2019-02-04T12:00:42.240Z,0.28
2019-02-04T12:01:42.564Z,1.01
2019-02-04T12:02:42.877Z,0.90
2019-02-04T12:03:43.268Z,1.72
2019-02-04T12:04:43.819Z,1.82
2019-02-04T12:05:43.639Z,1.23
2019-02-04T12:06:44.255Z,1.09
2019-02-04T12:07:44.166Z,2.72
2019-02-04T12:08:44.550Z,1.43
2019-02-04T12:09:45.288Z,1.71
2019-02-04T12:10:45.649Z,2.37
2019-02-04T12:11:45.773Z,1.44
2019-02-04T12:12:45.739Z,2.48
2019-02-04T12:13:46.641Z,1.61
2019-02-04T12:14:46.917Z,1.99
2019-02-04T12:15:46.734Z,1.59
2019-02-04T12:16:47.300Z,1.51
2019-02-04T12:17:47.142Z,1.94
2019-02-04T12:18:47.456Z,2.13
2019-02-04T12:19:47.886Z,0.98
2019-02-04T12:20:48.936Z,1.26
2019-02-04T12:21:48.652Z,2.48
2019-02-04T12:22:48.501Z,1.55
2019-02-04T12:23:48.811Z,0.66
2019-02-04T12:24:49.990Z,0.35
2019-02-04T12:25:49.357Z,0.82
2019-02-04T12:26:49.809Z,1.84
2019-02-04T12:27:51.137Z,0.38
2019-02-04T12:28:51.662Z,0.81
2019-02-04T12:29:51.677Z,2.22
2019-02-04T12:30:52.078Z,1.75
2019-02-04T12:31:52.482Z,0.59
2019-02-04T12:32:52.804Z,0.42
2019-02-04T12:33:52.914Z,0.80
2019-02-04T12:34:53.031Z,0.76
2019-02-04T12:35:53.362Z,1.18
2019-02-04T12:36:54.404Z,1.54
2019-02-04T12:37:54.421Z,1.49
2019-02-04T12:38:54.451Z,2.57
2019-02-04T12:39:54.749Z,1.46
2019-02-04T12:40:54.658Z,1.72
2019-02-04T12:41:55.387Z,2.99
2019-02-04T12:42:55.283Z,2.17
2019-02-04T12:43:55.785Z,2.43
2019-02-04T12:44:55.806Z,1.92
2019-02-04T12:45:56.173Z,0.96
2019-02-04T12:46:56.757Z,1.54
2019-02-04T12:47:56.947Z,1.37
2019-02-04T12:48:56.430Z,1.80
2019-02-04T12:49:56.709Z,2.16
2019-02-04T12:50:57.024Z,1.25
2019-02-04T12:51:57.394Z,0.66
2019-02-04T12:52:58.933Z,0.51
2019-02-04T12:53:57.761Z,1.27
2019-02-04T12:54:58.529Z,1.52
2019-02-04T12:55:58.442Z,0.98
2019-02-04T12:56:58.839Z,1.57
2019-02-04T12:57:59.239Z,1.44
2019-02-04T12:58:59.650Z,1.89
2019-02-04T13:00:00.219Z,2.76
2019-02-04T13:01:01.139Z,1.50
2019-02-04T13:02:00.664Z,1.35
2019-02-04T13:03:01.654Z,2.12
2019-02-04T13:04:01.456Z,1.29
2019-02-04T13:05:02.199Z,2.02
2019-02-04T13:06:02.387Z,1.33
2019-02-04T13:07:03.129Z,0.52
2019-02-04T13:08:03.122Z,1.63
2019-02-04T13:09:03.533Z,2.49
2019-02-04T13:10:03.454Z,2.36
2019-02-04T13:11:03.651Z,2.00
2019-02-04T13:12:03.893Z,1.62
2019-02-04T13:13:03.740Z,1.43
2019-02-04T13:14:04.288Z,0.76
2019-02-04T13:15:04.603Z,1.03
2019-02-04T13:16:04.255Z,1.93
2019-02-04T13:17:05.440Z,1.64
2019-02-04T13:18:05.438Z,2.18
2019-02-04T13:19:06.265Z,0.98
2019-02-04T13:20:06.583Z,0.97
2019-02-04T13:21:06.995Z,1.56
2019-02-04T13:22:07.588Z,1.54
2019-02-04T13:23:07.519Z,1.45
2019-02-04T13:24:07.894Z,2.00
2019-02-04T13:25:08.051Z,1.04
2019-02-04T13:26:08.358Z,1.38
2019-02-04T13:27:08.464Z,1.04
2019-02-04T13:28:08.879Z,1.99
2019-02-04T13:29:08.890Z,1.81